sensor_id;sensor_type;location;lat;lon;timestamp;P1;durP1;ratioP1;P2;durP2;ratioP2
55346;SDS011;41218;55.700;38.270;2023-05-20T00:02:42;4.47;;;2.20;;
55346;SDS011;41218;55.700;38.270;2023-05-20T00:07:43;6.00;;;2.50;;
55346;SDS011;41218;55.700;38.270;2023-05-20T00:12:43;5.70;;;2.80;;
55346;SDS011;41218;55.700;38.270;2023-05-20T00:17:44;5.43;;;2.60;;
55346;SDS011;41218;55.700;38.270;2023-05-20T00:22:44;4.70;;;2.97;;
55346;SDS011;41218;55.700;38.270;2023-05-20T00:27:45;5.73;;;2.93;;
55346;SDS011;41218;55.700;38.270;2023-05-20T00:32:46;7.97;;;3.25;;
55346;SDS011;41218;55.700;38.270;2023-05-20T00:37:46;6.27;;;3.07;;
55346;SDS011;41218;55.700;38.270;2023-05-20T00:42:47;4.77;;;3.03;;
55346;SDS011;41218;55.700;38.270;2023-05-20T00:47:47;5.27;;;3.20;;
55346;SDS011;41218;55.700;38.270;2023-05-20T00:52:48;5.57;;;3.13;;
55346;SDS011;41218;55.700;38.270;2023-05-20T00:57:50;7.25;;;2.92;;
55346;SDS011;41218;55.700;38.270;2023-05-20T01:02:53;6.28;;;2.63;;
55346;SDS011;41218;55.700;38.270;2023-05-20T01:07:55;3.92;;;2.55;;
55346;SDS011;41218;55.700;38.270;2023-05-20T01:12:57;5.63;;;2.75;;
55346;SDS011;41218;55.700;38.270;2023-05-20T01:18:04;3.20;;;2.10;;
55346;SDS011;41218;55.700;38.270;2023-05-20T01:23:09;3.58;;;2.15;;
55346;SDS011;41218;55.700;38.270;2023-05-20T01:28:10;3.10;;;2.13;;
55346;SDS011;41218;55.700;38.270;2023-05-20T01:33:16;5.10;;;2.40;;
55346;SDS011;41218;55.700;38.270;2023-05-20T01:38:20;3.72;;;2.08;;
55346;SDS011;41218;55.700;38.270;2023-05-20T01:43:23;4.60;;;1.90;;
55346;SDS011;41218;55.700;38.270;2023-05-20T01:48:25;1.88;;;1.58;;
55346;SDS011;41218;55.700;38.270;2023-05-20T01:53:25;3.07;;;1.50;;
55346;SDS011;41218;55.700;38.270;2023-05-20T01:58:26;3.37;;;1.60;;
55346;SDS011;41218;55.700;38.270;2023-05-20T02:03:26;1.83;;;1.20;;
55346;SDS011;41218;55.700;38.270;2023-05-20T02:08:27;1.97;;;1.33;;
55346;SDS011;41218;55.700;38.270;2023-05-20T02:13:28;7.23;;;1.67;;
55346;SDS011;41218;55.700;38.270;2023-05-20T02:18:29;2.00;;;1.25;;
55346;SDS011;41218;55.700;38.270;2023-05-20T02:23:29;1.40;;;1.10;;
55346;SDS011;41218;55.700;38.270;2023-05-20T02:28:30;1.85;;;1.25;;
55346;SDS011;41218;55.700;38.270;2023-05-20T02:33:31;1.97;;;1.10;;
55346;SDS011;41218;55.700;38.270;2023-05-20T02:38:32;2.33;;;1.33;;
55346;SDS011;41218;55.700;38.270;2023-05-20T02:43:32;3.80;;;1.50;;
55346;SDS011;41218;55.700;38.270;2023-05-20T02:48:33;5.13;;;1.27;;
55346;SDS011;41218;55.700;38.270;2023-05-20T02:53:33;1.50;;;1.17;;
55346;SDS011;41218;55.700;38.270;2023-05-20T02:58:34;3.97;;;1.37;;
55346;SDS011;41218;55.700;38.270;2023-05-20T03:03:34;3.57;;;1.23;;
55346;SDS011;41218;55.700;38.270;2023-05-20T03:08:37;3.30;;;1.42;;
55346;SDS011;41218;55.700;38.270;2023-05-20T03:13:38;2.47;;;1.05;;
55346;SDS011;41218;55.700;38.270;2023-05-20T03:18:39;3.97;;;1.40;;
55346;SDS011;41218;55.700;38.270;2023-05-20T03:23:39;4.30;;;1.17;;
55346;SDS011;41218;55.700;38.270;2023-05-20T03:28:40;2.53;;;1.33;;
55346;SDS011;41218;55.700;38.270;2023-05-20T03:33:40;1.63;;;1.23;;
55346;SDS011;41218;55.700;38.270;2023-05-20T03:38:41;1.80;;;1.10;;
55346;SDS011;41218;55.700;38.270;2023-05-20T03:43:41;1.47;;;1.20;;
55346;SDS011;41218;55.700;38.270;2023-05-20T03:48:42;1.27;;;1.10;;
55346;SDS011;41218;55.700;38.270;2023-05-20T03:53:42;1.47;;;1.20;;
55346;SDS011;41218;55.700;38.270;2023-05-20T03:58:43;1.80;;;1.30;;
55346;SDS011;41218;55.700;38.270;2023-05-20T04:03:44;1.17;;;1.08;;
55346;SDS011;41218;55.700;38.270;2023-05-20T04:08:44;3.00;;;1.20;;
55346;SDS011;41218;55.700;38.270;2023-05-20T04:13:45;1.70;;;1.10;;
55346;SDS011;41218;55.700;38.270;2023-05-20T04:18:46;1.70;;;1.00;;
55346;SDS011;41218;55.700;38.270;2023-05-20T04:23:47;3.00;;;1.10;;
55346;SDS011;41218;55.700;38.270;2023-05-20T04:28:47;1.10;;;1.00;;
55346;SDS011;41218;55.700;38.270;2023-05-20T04:33:48;2.33;;;1.30;;
55346;SDS011;41218;55.700;38.270;2023-05-20T04:38:49;1.48;;;1.20;;
55346;SDS011;41218;55.700;38.270;2023-05-20T04:43:50;4.25;;;1.10;;
55346;SDS011;41218;55.700;38.270;2023-05-20T04:48:51;1.33;;;1.03;;
55346;SDS011;41218;55.700;38.270;2023-05-20T04:53:52;3.60;;;1.17;;
55346;SDS011;41218;55.700;38.270;2023-05-20T04:58:53;3.03;;;1.30;;
55346;SDS011;41218;55.700;38.270;2023-05-20T05:03:55;1.38;;;1.23;;
55346;SDS011;41218;55.700;38.270;2023-05-20T05:08:55;1.70;;;1.20;;
55346;SDS011;41218;55.700;38.270;2023-05-20T05:13:56;2.43;;;1.40;;
55346;SDS011;41218;55.700;38.270;2023-05-20T05:18:56;1.30;;;1.10;;
55346;SDS011;41218;55.700;38.270;2023-05-20T05:23:57;1.70;;;1.30;;
55346;SDS011;41218;55.700;38.270;2023-05-20T05:28:57;2.67;;;1.60;;
55346;SDS011;41218;55.700;38.270;2023-05-20T05:33:58;1.40;;;1.20;;
55346;SDS011;41218;55.700;38.270;2023-05-20T05:38:58;1.97;;;1.20;;
55346;SDS011;41218;55.700;38.270;2023-05-20T05:43:59;3.30;;;1.30;;
55346;SDS011;41218;55.700;38.270;2023-05-20T05:48:59;1.73;;;1.20;;
55346;SDS011;41218;55.700;38.270;2023-05-20T05:54:00;1.30;;;1.20;;
55346;SDS011;41218;55.700;38.270;2023-05-20T05:59:00;4.73;;;1.43;;
55346;SDS011;41218;55.700;38.270;2023-05-20T06:04:01;1.83;;;1.10;;
55346;SDS011;41218;55.700;38.270;2023-05-20T06:09:02;2.00;;;1.33;;
55346;SDS011;41218;55.700;38.270;2023-05-20T06:14:03;2.65;;;1.20;;
55346;SDS011;41218;55.700;38.270;2023-05-20T06:19:03;2.30;;;0.90;;
55346;SDS011;41218;55.700;38.270;2023-05-20T06:24:04;1.30;;;1.17;;
55346;SDS011;41218;55.700;38.270;2023-05-20T06:29:05;2.20;;;1.10;;
55346;SDS011;41218;55.700;38.270;2023-05-20T06:34:05;1.80;;;1.10;;
55346;SDS011;41218;55.700;38.270;2023-05-20T06:39:06;1.63;;;1.30;;
55346;SDS011;41218;55.700;38.270;2023-05-20T06:44:11;3.25;;;1.10;;
55346;SDS011;41218;55.700;38.270;2023-05-20T06:49:12;1.67;;;1.37;;
55346;SDS011;41218;55.700;38.270;2023-05-20T06:54:12;3.58;;;0.98;;
55346;SDS011;41218;55.700;38.270;2023-05-20T06:59:13;1.57;;;1.37;;
55346;SDS011;41218;55.700;38.270;2023-05-20T07:04:13;5.40;;;1.20;;
55346;SDS011;41218;55.700;38.270;2023-05-20T07:09:14;1.85;;;1.30;;
55346;SDS011;41218;55.700;38.270;2023-05-20T07:14:15;1.20;;;1.10;;
55346;SDS011;41218;55.700;38.270;2023-05-20T07:19:15;1.53;;;1.20;;
55346;SDS011;41218;55.700;38.270;2023-05-20T07:24:16;1.33;;;1.10;;
55346;SDS011;41218;55.700;38.270;2023-05-20T07:29:17;2.67;;;1.30;;
55346;SDS011;41218;55.700;38.270;2023-05-20T07:34:17;1.60;;;1.10;;
55346;SDS011;41218;55.700;38.270;2023-05-20T07:39:18;2.83;;;1.27;;
55346;SDS011;41218;55.700;38.270;2023-05-20T07:44:18;7.20;;;1.30;;
55346;SDS011;41218;55.700;38.270;2023-05-20T07:49:21;1.65;;;1.10;;
55346;SDS011;41218;55.700;38.270;2023-05-20T07:54:22;2.00;;;1.40;;
55346;SDS011;41218;55.700;38.270;2023-05-20T08:04:23;3.87;;;1.40;;
55346;SDS011;41218;55.700;38.270;2023-05-20T08:09:24;2.13;;;1.00;;
55346;SDS011;41218;55.700;38.270;2023-05-20T08:14:24;2.38;;;1.23;;
55346;SDS011;41218;55.700;38.270;2023-05-20T08:19:25;2.30;;;1.30;;
55346;SDS011;41218;55.700;38.270;2023-05-20T08:24:25;1.40;;;1.13;;
55346;SDS011;41218;55.700;38.270;2023-05-20T08:29:26;2.30;;;1.37;;
55346;SDS011;41218;55.700;38.270;2023-05-20T08:34:26;1.60;;;1.23;;
55346;SDS011;41218;55.700;38.270;2023-05-20T08:39:27;1.40;;;1.20;;
55346;SDS011;41218;55.700;38.270;2023-05-20T08:44:27;2.30;;;1.10;;
55346;SDS011;41218;55.700;38.270;2023-05-20T08:49:29;3.17;;;1.33;;
55346;SDS011;41218;55.700;38.270;2023-05-20T08:54:42;1.92;;;1.40;;
55346;SDS011;41218;55.700;38.270;2023-05-20T08:59:45;2.80;;;1.30;;
55346;SDS011;41218;55.700;38.270;2023-05-20T09:04:46;1.70;;;1.30;;
55346;SDS011;41218;55.700;38.270;2023-05-20T09:09:46;1.67;;;1.40;;
55346;SDS011;41218;55.700;38.270;2023-05-20T09:14:48;2.45;;;1.40;;
55346;SDS011;41218;55.700;38.270;2023-05-20T09:19:49;1.45;;;1.20;;
55346;SDS011;41218;55.700;38.270;2023-05-20T09:24:50;1.92;;;1.48;;
55346;SDS011;41218;55.700;38.270;2023-05-20T09:29:51;5.93;;;1.55;;
55346;SDS011;41218;55.700;38.270;2023-05-20T09:34:52;3.60;;;1.50;;
55346;SDS011;41218;55.700;38.270;2023-05-20T09:39:56;2.00;;;1.30;;
55346;SDS011;41218;55.700;38.270;2023-05-20T09:45:00;3.63;;;1.77;;
55346;SDS011;41218;55.700;38.270;2023-05-20T09:50:04;3.67;;;1.83;;
55346;SDS011;41218;55.700;38.270;2023-05-20T09:55:07;3.20;;;1.50;;
55346;SDS011;41218;55.700;38.270;2023-05-20T10:00:12;2.78;;;1.85;;
55346;SDS011;41218;55.700;38.270;2023-05-20T10:05:19;3.30;;;1.88;;
55346;SDS011;41218;55.700;38.270;2023-05-20T10:21:13;3.80;;;1.65;;
55346;SDS011;41218;55.700;38.270;2023-05-20T10:26:15;1.75;;;1.40;;
55346;SDS011;41218;55.700;38.270;2023-05-20T10:31:20;3.72;;;1.55;;
55346;SDS011;41218;55.700;38.270;2023-05-20T10:36:25;4.07;;;1.58;;
55346;SDS011;41218;55.700;38.270;2023-05-20T10:41:27;2.63;;;1.70;;
55346;SDS011;41218;55.700;38.270;2023-05-20T10:46:28;4.65;;;2.05;;
55346;SDS011;41218;55.700;38.270;2023-05-20T10:51:30;2.70;;;1.95;;
55346;SDS011;41218;55.700;38.270;2023-05-20T11:01:31;4.97;;;1.60;;
55346;SDS011;41218;55.700;38.270;2023-05-20T11:06:32;3.55;;;1.60;;
55346;SDS011;41218;55.700;38.270;2023-05-20T11:11:33;2.15;;;1.52;;
55346;SDS011;41218;55.700;38.270;2023-05-20T11:16:33;4.70;;;1.50;;
55346;SDS011;41218;55.700;38.270;2023-05-20T11:21:41;4.40;;;1.80;;
55346;SDS011;41218;55.700;38.270;2023-05-20T11:26:42;2.53;;;1.77;;
55346;SDS011;41218;55.700;38.270;2023-05-20T11:31:42;3.78;;;1.88;;
55346;SDS011;41218;55.700;38.270;2023-05-20T11:36:43;2.37;;;1.77;;
55346;SDS011;41218;55.700;38.270;2023-05-20T11:41:43;5.10;;;1.60;;
55346;SDS011;41218;55.700;38.270;2023-05-20T11:46:45;3.42;;;1.55;;
55346;SDS011;41218;55.700;38.270;2023-05-20T11:51:47;2.20;;;1.70;;
55346;SDS011;41218;55.700;38.270;2023-05-20T11:56:49;2.92;;;1.25;;
55346;SDS011;41218;55.700;38.270;2023-05-20T12:01:49;2.03;;;1.40;;
55346;SDS011;41218;55.700;38.270;2023-05-20T12:06:50;3.10;;;1.40;;
55346;SDS011;41218;55.700;38.270;2023-05-20T12:11:52;2.72;;;1.60;;
55346;SDS011;41218;55.700;38.270;2023-05-20T12:16:54;2.33;;;1.50;;
55346;SDS011;41218;55.700;38.270;2023-05-20T12:21:55;4.55;;;1.40;;
55346;SDS011;41218;55.700;38.270;2023-05-20T12:26:56;2.93;;;1.60;;
55346;SDS011;41218;55.700;38.270;2023-05-20T12:31:56;3.30;;;1.43;;
55346;SDS011;41218;55.700;38.270;2023-05-20T12:36:57;2.53;;;1.77;;
55346;SDS011;41218;55.700;38.270;2023-05-20T12:41:58;11.63;;;2.13;;
55346;SDS011;41218;55.700;38.270;2023-05-20T12:46:58;2.87;;;1.50;;
55346;SDS011;41218;55.700;38.270;2023-05-20T12:51:59;2.97;;;1.53;;
55346;SDS011;41218;55.700;38.270;2023-05-20T12:56:59;3.47;;;1.50;;
55346;SDS011;41218;55.700;38.270;2023-05-20T13:02:00;7.35;;;1.75;;
55346;SDS011;41218;55.700;38.270;2023-05-20T13:07:01;2.38;;;1.50;;
55346;SDS011;41218;55.700;38.270;2023-05-20T13:12:02;2.38;;;1.40;;
55346;SDS011;41218;55.700;38.270;2023-05-20T13:17:02;2.72;;;1.75;;
55346;SDS011;41218;55.700;38.270;2023-05-20T13:22:03;5.87;;;1.83;;
55346;SDS011;41218;55.700;38.270;2023-05-20T13:27:05;3.65;;;2.20;;
55346;SDS011;41218;55.700;38.270;2023-05-20T13:32:06;3.92;;;2.33;;
55346;SDS011;41218;55.700;38.270;2023-05-20T13:37:06;3.03;;;2.00;;
55346;SDS011;41218;55.700;38.270;2023-05-20T13:42:07;2.77;;;1.90;;
55346;SDS011;41218;55.700;38.270;2023-05-20T13:47:07;2.88;;;1.80;;
55346;SDS011;41218;55.700;38.270;2023-05-20T13:52:08;1.87;;;1.60;;
55346;SDS011;41218;55.700;38.270;2023-05-20T13:57:08;3.20;;;1.83;;
55346;SDS011;41218;55.700;38.270;2023-05-20T14:02:09;3.00;;;1.67;;
55346;SDS011;41218;55.700;38.270;2023-05-20T14:07:10;4.25;;;1.90;;
55346;SDS011;41218;55.700;38.270;2023-05-20T14:12:10;2.90;;;2.15;;
55346;SDS011;41218;55.700;38.270;2023-05-20T14:17:11;3.13;;;2.30;;
55346;SDS011;41218;55.700;38.270;2023-05-20T14:22:11;4.18;;;2.10;;
55346;SDS011;41218;55.700;38.270;2023-05-20T14:27:14;5.10;;;2.25;;
55346;SDS011;41218;55.700;38.270;2023-05-20T14:32:15;3.40;;;2.40;;
55346;SDS011;41218;55.700;38.270;2023-05-20T14:37:15;3.95;;;2.20;;
55346;SDS011;41218;55.700;38.270;2023-05-20T14:42:16;3.50;;;2.30;;
55346;SDS011;41218;55.700;38.270;2023-05-20T14:47:16;3.30;;;2.23;;
55346;SDS011;41218;55.700;38.270;2023-05-20T14:52:21;4.25;;;2.30;;
55346;SDS011;41218;55.700;38.270;2023-05-20T14:57:22;3.15;;;2.17;;
55346;SDS011;41218;55.700;38.270;2023-05-20T15:02:22;4.00;;;2.27;;
55346;SDS011;41218;55.700;38.270;2023-05-20T15:07:23;3.50;;;2.15;;
55346;SDS011;41218;55.700;38.270;2023-05-20T15:12:23;4.67;;;2.13;;
55346;SDS011;41218;55.700;38.270;2023-05-20T15:17:24;9.67;;;2.23;;
55346;SDS011;41218;55.700;38.270;2023-05-20T15:22:24;3.73;;;2.10;;
55346;SDS011;41218;55.700;38.270;2023-05-20T15:27:25;2.88;;;2.03;;
55346;SDS011;41218;55.700;38.270;2023-05-20T15:32:25;3.73;;;2.20;;
55346;SDS011;41218;55.700;38.270;2023-05-20T15:37:26;3.30;;;2.03;;
55346;SDS011;41218;55.700;38.270;2023-05-20T15:42:26;2.67;;;2.05;;
55346;SDS011;41218;55.700;38.270;2023-05-20T15:47:27;3.10;;;2.00;;
55346;SDS011;41218;55.700;38.270;2023-05-20T15:52:27;6.43;;;2.17;;
55346;SDS011;41218;55.700;38.270;2023-05-20T15:57:28;3.87;;;2.30;;
55346;SDS011;41218;55.700;38.270;2023-05-20T16:07:30;3.90;;;2.47;;
55346;SDS011;41218;55.700;38.270;2023-05-20T16:12:31;4.13;;;2.75;;
55346;SDS011;41218;55.700;38.270;2023-05-20T16:17:31;3.87;;;2.80;;
55346;SDS011;41218;55.700;38.270;2023-05-20T16:22:35;5.60;;;2.23;;
55346;SDS011;41218;55.700;38.270;2023-05-20T16:27:36;5.03;;;2.25;;
55346;SDS011;41218;55.700;38.270;2023-05-20T16:32:36;3.95;;;2.05;;
55346;SDS011;41218;55.700;38.270;2023-05-20T16:37:37;4.50;;;2.22;;
55346;SDS011;41218;55.700;38.270;2023-05-20T16:42:38;6.20;;;2.35;;
55346;SDS011;41218;55.700;38.270;2023-05-20T16:47:39;5.47;;;2.60;;
55346;SDS011;41218;55.700;38.270;2023-05-20T16:52:39;4.95;;;2.80;;
55346;SDS011;41218;55.700;38.270;2023-05-20T16:57:40;2.45;;;1.90;;
55346;SDS011;41218;55.700;38.270;2023-05-20T17:02:42;3.50;;;2.20;;
55346;SDS011;41218;55.700;38.270;2023-05-20T17:07:42;5.00;;;2.63;;
55346;SDS011;41218;55.700;38.270;2023-05-20T17:12:43;3.10;;;1.90;;
55346;SDS011;41218;55.700;38.270;2023-05-20T17:17:43;4.33;;;2.77;;
55346;SDS011;41218;55.700;38.270;2023-05-20T17:22:44;5.60;;;3.28;;
55346;SDS011;41218;55.700;38.270;2023-05-20T17:27:44;8.03;;;4.47;;
55346;SDS011;41218;55.700;38.270;2023-05-20T17:32:45;4.80;;;3.00;;
55346;SDS011;41218;55.700;38.270;2023-05-20T17:37:45;5.47;;;3.20;;
55346;SDS011;41218;55.700;38.270;2023-05-20T17:42:46;5.30;;;2.72;;
55346;SDS011;41218;55.700;38.270;2023-05-20T17:47:49;4.25;;;3.08;;
55346;SDS011;41218;55.700;38.270;2023-05-20T17:52:50;6.13;;;3.20;;
55346;SDS011;41218;55.700;38.270;2023-05-20T17:57:50;5.57;;;3.10;;
55346;SDS011;41218;55.700;38.270;2023-05-20T18:02:51;7.57;;;3.03;;
55346;SDS011;41218;55.700;38.270;2023-05-20T18:07:55;4.70;;;3.20;;
55346;SDS011;41218;55.700;38.270;2023-05-20T18:17:56;4.37;;;2.90;;
55346;SDS011;41218;55.700;38.270;2023-05-20T18:22:57;5.77;;;3.17;;
55346;SDS011;41218;55.700;38.270;2023-05-20T18:27:57;5.57;;;3.17;;
55346;SDS011;41218;55.700;38.270;2023-05-20T18:32:58;5.17;;;3.00;;
55346;SDS011;41218;55.700;38.270;2023-05-20T18:37:59;5.97;;;3.00;;
55346;SDS011;41218;55.700;38.270;2023-05-20T18:42:59;4.70;;;3.10;;
55346;SDS011;41218;55.700;38.270;2023-05-20T18:48:00;5.03;;;3.00;;
55346;SDS011;41218;55.700;38.270;2023-05-20T18:53:00;5.27;;;2.97;;
55346;SDS011;41218;55.700;38.270;2023-05-20T18:58:01;7.07;;;3.67;;
55346;SDS011;41218;55.700;38.270;2023-05-20T19:03:01;6.93;;;3.90;;
55346;SDS011;41218;55.700;38.270;2023-05-20T19:08:02;6.83;;;3.63;;
55346;SDS011;41218;55.700;38.270;2023-05-20T19:13:04;7.82;;;3.85;;
55346;SDS011;41218;55.700;38.270;2023-05-20T19:18:05;7.40;;;4.00;;
55346;SDS011;41218;55.700;38.270;2023-05-20T19:23:06;8.63;;;4.35;;
55346;SDS011;41218;55.700;38.270;2023-05-20T19:28:06;7.10;;;4.53;;
55346;SDS011;41218;55.700;38.270;2023-05-20T19:33:07;6.77;;;4.10;;
55346;SDS011;41218;55.700;38.270;2023-05-20T19:38:07;6.87;;;4.23;;
55346;SDS011;41218;55.700;38.270;2023-05-20T19:43:08;7.13;;;4.20;;
55346;SDS011;41218;55.700;38.270;2023-05-20T19:48:08;6.53;;;4.03;;
55346;SDS011;41218;55.700;38.270;2023-05-20T19:53:09;6.45;;;3.85;;
55346;SDS011;41218;55.700;38.270;2023-05-20T19:58:10;5.80;;;4.10;;
55346;SDS011;41218;55.700;38.270;2023-05-20T20:03:10;7.93;;;4.40;;
55346;SDS011;41218;55.700;38.270;2023-05-20T20:08:11;7.53;;;4.03;;
55346;SDS011;41218;55.700;38.270;2023-05-20T20:13:11;5.40;;;3.73;;
55346;SDS011;41218;55.700;38.270;2023-05-20T20:18:12;7.50;;;4.30;;
55346;SDS011;41218;55.700;38.270;2023-05-20T20:23:13;7.30;;;4.95;;
55346;SDS011;41218;55.700;38.270;2023-05-20T20:28:13;7.63;;;4.30;;
55346;SDS011;41218;55.700;38.270;2023-05-20T20:33:14;6.47;;;4.43;;
55346;SDS011;41218;55.700;38.270;2023-05-20T20:38:15;8.40;;;4.83;;
55346;SDS011;41218;55.700;38.270;2023-05-20T20:43:17;5.68;;;4.15;;
55346;SDS011;41218;55.700;38.270;2023-05-20T20:48:17;8.57;;;4.73;;
55346;SDS011;41218;55.700;38.270;2023-05-20T20:53:18;6.87;;;4.57;;
55346;SDS011;41218;55.700;38.270;2023-05-20T20:58:18;9.13;;;4.50;;
55346;SDS011;41218;55.700;38.270;2023-05-20T21:03:20;5.70;;;4.03;;
55346;SDS011;41218;55.700;38.270;2023-05-20T21:08:22;5.75;;;3.90;;
55346;SDS011;41218;55.700;38.270;2023-05-20T21:13:27;6.03;;;4.07;;
55346;SDS011;41218;55.700;38.270;2023-05-20T21:18:28;6.07;;;4.10;;
55346;SDS011;41218;55.700;38.270;2023-05-20T21:23:29;5.07;;;3.70;;
55346;SDS011;41218;55.700;38.270;2023-05-20T21:28:33;6.63;;;3.67;;
55346;SDS011;41218;55.700;38.270;2023-05-20T21:33:33;6.03;;;4.00;;
55346;SDS011;41218;55.700;38.270;2023-05-20T21:38:34;6.57;;;3.70;;
55346;SDS011;41218;55.700;38.270;2023-05-20T21:43:34;6.37;;;3.57;;
55346;SDS011;41218;55.700;38.270;2023-05-20T21:48:36;6.90;;;3.75;;
55346;SDS011;41218;55.700;38.270;2023-05-20T21:53:36;6.67;;;3.80;;
55346;SDS011;41218;55.700;38.270;2023-05-20T21:58:37;6.87;;;4.37;;
55346;SDS011;41218;55.700;38.270;2023-05-20T22:03:40;6.75;;;4.22;;
55346;SDS011;41218;55.700;38.270;2023-05-20T22:08:44;5.63;;;4.00;;
55346;SDS011;41218;55.700;38.270;2023-05-20T22:13:45;6.40;;;4.00;;
55346;SDS011;41218;55.700;38.270;2023-05-20T22:18:45;5.80;;;3.80;;
55346;SDS011;41218;55.700;38.270;2023-05-20T22:23:46;6.57;;;3.63;;
55346;SDS011;41218;55.700;38.270;2023-05-20T22:28:47;5.70;;;3.70;;
55346;SDS011;41218;55.700;38.270;2023-05-20T22:33:47;6.20;;;4.03;;
55346;SDS011;41218;55.700;38.270;2023-05-20T22:38:48;6.25;;;3.90;;
55346;SDS011;41218;55.700;38.270;2023-05-20T22:43:50;6.20;;;4.20;;
55346;SDS011;41218;55.700;38.270;2023-05-20T22:48:50;6.43;;;4.03;;
55346;SDS011;41218;55.700;38.270;2023-05-20T22:58:52;7.37;;;4.43;;
55346;SDS011;41218;55.700;38.270;2023-05-20T23:03:52;6.27;;;4.07;;
55346;SDS011;41218;55.700;38.270;2023-05-20T23:08:53;5.47;;;3.93;;
55346;SDS011;41218;55.700;38.270;2023-05-20T23:13:53;7.30;;;4.50;;
55346;SDS011;41218;55.700;38.270;2023-05-20T23:18:54;6.57;;;4.50;;
55346;SDS011;41218;55.700;38.270;2023-05-20T23:23:55;8.43;;;5.05;;
55346;SDS011;41218;55.700;38.270;2023-05-20T23:28:56;6.67;;;4.37;;
55346;SDS011;41218;55.700;38.270;2023-05-20T23:33:57;6.80;;;4.10;;
55346;SDS011;41218;55.700;38.270;2023-05-20T23:38:57;6.82;;;4.60;;
55346;SDS011;41218;55.700;38.270;2023-05-20T23:43:58;5.80;;;4.33;;
55346;SDS011;41218;55.700;38.270;2023-05-20T23:48:58;7.93;;;4.57;;
55346;SDS011;41218;55.700;38.270;2023-05-20T23:54:00;8.05;;;5.05;;
55346;SDS011;41218;55.700;38.270;2023-05-20T23:59:01;8.00;;;4.77;;
